Tropical Cyclones
[Index]
Main Index Home Page Stock Weather Photos Extreme Storms Discussion Storm News and Storm Chasing Reports Tropical Cyclones / Hurricanes / Typhoons Weather Data and Links Wild Fires / Bushfires Weather Observation Techniques Weather Picture Catalogue Tornado Pictures and Reports Stock Video Footage and DVDs for sale
Season 1996-1997 Tropical Cyclone JUNE Track Map
Season 1996-1997 Summaries: [BoM-AU] [JTWC-AU] [JTWC-SIO] [JTWC-SPAC] [JTWC-SH]
<<- Previous TC | JTWC 1996-1997 Season | Next TC ->>

click for intensity scale information  Lat/long Grid: Show Hide

 Date Labels: Show Hide

Joint Typhoon Warning Centre Cyclone Data

Name: JUNE

27 Apr 1997 18:00 UTC to 06 May 1997 12:00 UTC

    date/time    lat    long     hPa   cat  kts
1997-04-27 18    9.0   165.6                  15          
1997-04-28 00    9.1   166.0                  15          
1997-04-28 06    9.2   166.4                  15          
1997-04-28 12    9.4   166.9                  15          
1997-04-28 18    9.7   167.3                  15          
1997-04-29 00    9.9   167.7                  15          
1997-04-29 06   10.1   168.1                  20          
1997-04-29 12   10.2   168.6                  20          
1997-04-29 18   10.2   169.0                  20          
1997-04-30 00   10.2   169.4                  20          
1997-04-30 06   10.2   169.7                  20          
1997-04-30 12   10.3   170.0                  25          
1997-04-30 18   10.4   170.3                  25          
1997-05-01 00   10.5   170.6                  25          
1997-05-01 06   10.7   170.9                  25          
1997-05-01 12   11.0   171.3                  25          
1997-05-01 18   11.4   171.7                  25          
1997-05-02 00   11.8   172.1                  30          
1997-05-02 06   12.3   172.5                  35          
1997-05-02 12   12.8   173.1            1     40          
1997-05-02 18   13.2   173.8            1     45          
1997-05-03 00   13.6   174.6            1     45          
1997-05-03 06   14.0   175.4            1     50          
1997-05-03 12   14.5   175.8            2     55          
1997-05-03 18   15.0   176.1            2     60          
1997-05-04 00   15.5   176.5            2     65          
1997-05-04 06   15.8   177.0            2     65          
1997-05-04 12   16.0   177.3            2     60          
1997-05-04 18   16.3   177.3            2     60          
1997-05-05 00   16.8   176.9            1     50          
1997-05-05 06   17.7   176.6            1     40          
1997-05-05 12   18.2   175.8                  35          
1997-05-05 18   18.1   175.0                  35          
1997-05-06 00   17.7   174.4                  35          
1997-05-06 06   17.9   174.2                  30          
1997-05-06 12   18.2   174.5                  25          
Winds are 1-min average.

Tropical cyclone tracks developed by Michael Bath using data from the Joint Typhoon Warning Centre Best Tracks and Google Maps.


[Australian Severe Weather index] [Copyright Notice] [Email Contacts] [Search This Site] [Privacy Policy]
Document: tropical_cyclone_june.htm Updated: 18 September 2016